首页
METAR-TAF:

METAR-TAF

机场 :

突尼斯-迦太基国际机场

突尼斯, 突尼斯

纬度: 36-50N, 经度: 010-14E, 海拔: 3米

当前天气观测

该预报发布于29分钟前的07:30 UTC
风速15节,风向西
温度 12°C
湿度 58%
气压 1013 hPa
能见度10公里或以上
散云层高于2600英尺
少量云层高于3000英尺, 积雨云.

METAR: DTTA 100730Z 27015KT 9999 SCT026 FEW030CB 12/04 Q1013

时间: 08:59 (07:59 UTC)

预报

该预报发布于2小时和59分钟前的05:00 UTC
预报有效从10日的 06点(UTC)到 11日的 06点(UTC)
风速11节,风向西南
能见度10公里或以上
散云层高于2600英尺
散云层高于4000英尺
成为
从 10日的 06点(UTC)到 10日的 08点(UTC)
风速19节,风向西转西北,有时为37节阵风
几率 40% :
短暂存在
从 10日的 10点(UTC)到 10日的 17点(UTC)
风速25节,风向西北,有时为43节阵风
能見度: 4000
少量云层高于2300英尺, 积雨云.
雷暴, (小) 雨
成为
从 10日的 16点(UTC)到 10日的 18点(UTC)
风速15节,风向北转西北,有时为27节阵风
短暂存在
从 10日的 22点(UTC)到 11日的 06点(UTC)
散云层高于2600英尺, 塔状积云.
小阵雨

TAF: DTTA 100500Z 1006/1106 23011KT 9999 SCT026 SCT040 BECMG 1006/1008 29019G37KT PROB40 TEMPO 1010/1017 31025G43KT 4000 -TS RA FEW023CB BECMG 1016/1018 33015G27KT TEMPO 1022/1106 -SHRA SCT026TCU

超过4000个机场的气象观测和天气预报(METAR&TAF报告)。

可查询的气象台以黄色和红色小点在地图上表示。

将鼠标移到小点上方,可查看气象台名称。

然后点击查看天气观测和预报。

如需切换地图:点击带黑十字的绿色按钮放大地图;点击带横线的绿色按钮缩小地图;或者点击绿色箭头查看邻近地区的地图。


METAR-TAF: